createdAt,value
2018-12-19T00:03:40.691Z,100.00
2018-12-19T00:06:44.001Z,100.00
2018-12-19T00:09:47.422Z,100.00
2018-12-19T00:12:50.796Z,100.00
2018-12-19T00:15:54.207Z,100.00
2018-12-19T00:18:57.607Z,100.00
2018-12-19T00:22:00.945Z,100.00
2018-12-19T00:25:05.017Z,100.00
2018-12-19T00:28:08.341Z,100.00
2018-12-19T00:31:11.716Z,100.00
2018-12-19T00:34:15.033Z,100.00
2018-12-19T00:37:18.413Z,100.00
2018-12-19T00:40:21.725Z,100.00
2018-12-19T00:43:25.053Z,100.00
2018-12-19T00:46:28.370Z,100.00
2018-12-19T00:49:31.693Z,100.00
2018-12-19T00:52:35.049Z,100.00
2018-12-19T00:55:38.369Z,100.00
2018-12-19T00:58:41.718Z,100.00
2018-12-19T01:01:45.029Z,100.00
2018-12-19T01:04:48.415Z,100.00
2018-12-19T01:07:51.829Z,100.00
2018-12-19T01:10:55.137Z,100.00
2018-12-19T01:13:58.453Z,100.00
2018-12-19T01:17:01.828Z,100.00
2018-12-19T01:20:05.997Z,100.00
2018-12-19T01:23:09.345Z,100.00
2018-12-19T01:26:12.666Z,100.00
2018-12-19T01:29:15.985Z,100.00
2018-12-19T01:32:19.328Z,100.00
2018-12-19T01:35:22.690Z,100.00
2018-12-19T01:38:26.040Z,100.00
2018-12-19T01:41:29.356Z,100.00
2018-12-19T01:44:32.794Z,100.00
2018-12-19T01:47:36.133Z,100.00
2018-12-19T01:50:39.452Z,100.00
2018-12-19T01:53:42.844Z,100.00
2018-12-19T01:56:46.158Z,100.00
2018-12-19T01:59:49.481Z,100.00
2018-12-19T02:06:09.720Z,100.00
2018-12-19T02:09:13.110Z,100.00
2018-12-19T02:12:16.420Z,100.00
2018-12-19T02:15:19.757Z,100.00
2018-12-19T02:18:23.072Z,100.00
2018-12-19T02:21:26.386Z,100.00
2018-12-19T02:24:29.702Z,100.00
2018-12-19T02:27:33.012Z,100.00
2018-12-19T02:30:36.329Z,100.00
2018-12-19T02:33:39.689Z,100.00
2018-12-19T02:36:43.006Z,100.00
2018-12-19T02:39:46.325Z,100.00
2018-12-19T02:42:49.642Z,100.00
2018-12-19T02:45:52.974Z,100.00
2018-12-19T02:48:56.374Z,100.00
2018-12-19T02:51:59.681Z,100.00
2018-12-19T02:55:03.038Z,100.00
2018-12-19T02:58:06.352Z,100.00
2018-12-19T03:01:10.084Z,100.00
2018-12-19T03:04:13.413Z,100.00
2018-12-19T03:07:16.730Z,100.00
2018-12-19T03:10:20.085Z,100.00
2018-12-19T03:13:23.417Z,100.00
2018-12-19T03:16:26.773Z,100.00
2018-12-19T03:19:30.161Z,100.00
2018-12-19T03:22:33.514Z,100.00
2018-12-19T03:25:36.828Z,100.00
2018-12-19T03:28:40.260Z,100.00
2018-12-19T03:31:44.358Z,100.00
2018-12-19T03:34:47.760Z,100.00
2018-12-19T03:37:51.072Z,100.00
2018-12-19T03:40:54.558Z,100.00
2018-12-19T03:43:57.879Z,100.00
2018-12-19T03:47:01.225Z,100.00
2018-12-19T03:50:04.766Z,100.00
2018-12-19T03:53:08.082Z,100.00
2018-12-19T03:56:11.396Z,100.00
2018-12-19T03:59:14.716Z,100.00
2018-12-19T04:02:18.024Z,100.00
2018-12-19T04:05:21.365Z,100.00
2018-12-19T04:08:24.755Z,100.00
2018-12-19T04:11:28.120Z,100.00
2018-12-19T04:14:31.435Z,100.00
2018-12-19T04:17:34.781Z,100.00
2018-12-19T04:20:38.149Z,100.00
2018-12-19T04:23:41.458Z,100.00
2018-12-19T04:26:44.785Z,100.00
2018-12-19T04:29:48.542Z,100.00
2018-12-19T04:32:52.230Z,100.00
2018-12-19T04:35:55.822Z,100.00
2018-12-19T04:38:59.186Z,100.00
2018-12-19T04:42:02.501Z,100.00
2018-12-19T04:45:06.063Z,100.00
2018-12-19T04:48:09.401Z,100.00
2018-12-19T04:51:12.720Z,100.00
2018-12-19T04:54:16.039Z,100.00
2018-12-19T04:57:19.371Z,100.00
2018-12-19T05:00:22.803Z,100.00
2018-12-19T05:03:26.166Z,100.00
2018-12-19T05:06:29.506Z,100.00
2018-12-19T05:09:33.009Z,100.00
2018-12-19T05:12:36.302Z,100.00
2018-12-19T05:15:39.701Z,100.00
2018-12-19T05:18:43.079Z,100.00
2018-12-19T05:21:46.381Z,100.00
2018-12-19T05:24:49.701Z,100.00
2018-12-19T05:27:53.082Z,100.00
2018-12-19T05:30:56.397Z,100.00
2018-12-19T05:33:59.738Z,100.00
2018-12-19T05:37:03.115Z,100.00
2018-12-19T05:40:07.877Z,100.00
2018-12-19T05:43:11.213Z,100.00
2018-12-19T05:46:14.592Z,99.18
2018-12-19T05:49:17.998Z,100.00
2018-12-19T05:55:40.248Z,100.00
2018-12-19T05:58:43.659Z,100.00
2018-12-19T06:01:47.112Z,98.87
2018-12-19T06:04:50.445Z,99.07
2018-12-19T06:07:53.853Z,99.71
2018-12-19T06:10:57.167Z,99.62
2018-12-19T06:14:00.542Z,99.26
2018-12-19T06:17:03.863Z,99.08
2018-12-19T06:20:07.346Z,98.16
2018-12-19T06:23:10.750Z,97.68
2018-12-19T06:26:14.112Z,97.46
2018-12-19T06:29:17.440Z,96.87
2018-12-19T06:32:20.758Z,96.87
2018-12-19T06:35:24.141Z,97.03
2018-12-19T06:38:27.574Z,97.22
2018-12-19T06:41:30.881Z,96.26
2018-12-19T06:44:34.190Z,95.62
2018-12-19T06:47:37.539Z,95.92
2018-12-19T06:50:40.937Z,95.39
2018-12-19T06:53:44.272Z,95.54
2018-12-19T06:56:47.639Z,96.02
2018-12-19T06:59:51.025Z,95.58
2018-12-19T07:02:54.329Z,94.21
2018-12-19T07:05:57.726Z,93.74
2018-12-19T07:09:01.172Z,93.08
2018-12-19T07:12:04.637Z,93.24
2018-12-19T07:15:08.318Z,93.08
2018-12-19T07:18:11.621Z,92.99
2018-12-19T07:21:15.069Z,94.00
2018-12-19T07:24:18.416Z,94.14
2018-12-19T07:27:21.750Z,93.05
2018-12-19T07:30:25.161Z,91.76
2018-12-19T07:33:28.460Z,91.66
2018-12-19T07:36:31.769Z,92.01
2018-12-19T07:39:35.153Z,91.95
2018-12-19T07:42:38.520Z,92.27
2018-12-19T07:45:41.844Z,92.15
2018-12-19T07:48:45.197Z,90.85
2018-12-19T07:51:48.526Z,90.62
2018-12-19T07:54:51.851Z,90.85
2018-12-19T07:57:55.192Z,90.63
2018-12-19T08:00:58.489Z,89.75
2018-12-19T08:04:02.528Z,89.19
2018-12-19T08:07:05.922Z,89.26
2018-12-19T08:10:09.333Z,88.83
2018-12-19T08:13:12.634Z,89.16
2018-12-19T08:16:16.018Z,88.97
2018-12-19T08:19:19.313Z,88.06
2018-12-19T08:22:22.629Z,87.16
2018-12-19T08:25:26.022Z,86.89
2018-12-19T08:28:29.346Z,86.12
2018-12-19T08:31:32.684Z,85.00
2018-12-19T08:34:36.017Z,84.41
2018-12-19T08:37:39.356Z,84.38
2018-12-19T08:40:42.653Z,83.06
2018-12-19T08:43:46.012Z,83.14
2018-12-19T08:46:49.410Z,83.04
2018-12-19T08:49:52.706Z,81.44
2018-12-19T08:52:56.118Z,81.11
2018-12-19T08:55:59.414Z,81.12
2018-12-19T08:59:02.716Z,80.70
2018-12-19T09:02:06.009Z,80.98
2018-12-19T09:05:09.405Z,80.29
2018-12-19T09:08:12.723Z,80.06
2018-12-19T09:11:16.082Z,80.05
2018-12-19T09:14:19.484Z,79.95
2018-12-19T09:17:22.825Z,79.76
2018-12-19T09:20:26.211Z,80.07
2018-12-19T09:23:29.600Z,80.06
2018-12-19T09:26:33.016Z,79.72
2018-12-19T09:29:36.521Z,79.72
2018-12-19T09:32:39.819Z,79.86
2018-12-19T09:35:43.112Z,79.81
2018-12-19T09:38:46.499Z,80.58
2018-12-19T09:41:49.816Z,80.83
2018-12-19T09:44:53.189Z,81.39
2018-12-19T09:47:56.503Z,81.10
2018-12-19T09:50:59.894Z,81.02
2018-12-19T09:54:03.289Z,80.28
2018-12-19T09:57:06.592Z,81.44
2018-12-19T10:03:33.037Z,79.99
2018-12-19T10:06:36.349Z,80.45
2018-12-19T10:09:39.640Z,80.30
2018-12-19T10:12:42.942Z,80.08
2018-12-19T10:15:46.301Z,79.93
2018-12-19T10:18:49.639Z,79.83
2018-12-19T10:21:52.942Z,79.47
2018-12-19T10:25:01.749Z,78.60
2018-12-19T10:28:05.267Z,78.06
2018-12-19T10:31:08.663Z,77.95
2018-12-19T10:34:12.010Z,78.01
2018-12-19T10:37:15.468Z,78.37
2018-12-19T10:40:18.843Z,78.83
2018-12-19T10:43:22.169Z,78.18
2018-12-19T10:46:25.564Z,78.39
2018-12-19T10:49:28.860Z,77.70
2018-12-19T10:52:32.164Z,77.49
2018-12-19T10:55:35.474Z,77.63
2018-12-19T10:58:38.878Z,77.74
2018-12-19T11:01:42.177Z,78.44
2018-12-19T11:04:45.656Z,77.89
2018-12-19T11:07:48.977Z,78.11
2018-12-19T11:10:52.344Z,77.68
2018-12-19T11:13:55.652Z,77.97
2018-12-19T11:16:59.202Z,77.59
2018-12-19T11:20:03.797Z,77.87
2018-12-19T11:23:07.178Z,78.22
2018-12-19T11:26:10.613Z,78.37
2018-12-19T11:29:13.929Z,78.12
2018-12-19T11:32:17.278Z,78.15
2018-12-19T11:35:20.605Z,78.39
2018-12-19T11:38:23.905Z,78.85
2018-12-19T11:41:27.196Z,78.99
2018-12-19T11:44:30.537Z,79.37
2018-12-19T11:47:33.978Z,80.20
2018-12-19T11:50:37.359Z,80.96
2018-12-19T11:53:40.773Z,81.74
2018-12-19T11:56:44.160Z,82.32
2018-12-19T11:59:47.572Z,82.30
2018-12-19T12:02:50.991Z,81.71
2018-12-19T12:05:54.376Z,81.68
2018-12-19T12:08:57.782Z,81.66
2018-12-19T12:12:01.177Z,80.78
2018-12-19T12:15:05.836Z,80.26
2018-12-19T12:18:09.366Z,80.11
2018-12-19T12:21:12.784Z,79.74
2018-12-19T12:24:16.442Z,79.00
2018-12-19T12:27:19.918Z,77.92
2018-12-19T12:30:24.221Z,77.90
2018-12-19T12:33:27.532Z,78.21
2018-12-19T12:36:30.928Z,78.09
2018-12-19T12:39:34.333Z,78.73
2018-12-19T12:42:37.951Z,79.36
2018-12-19T12:45:41.280Z,79.61
2018-12-19T12:48:44.624Z,78.86
2018-12-19T12:51:48.049Z,78.43
2018-12-19T12:54:51.429Z,78.08
2018-12-19T12:57:54.765Z,77.53
2018-12-19T13:00:58.132Z,78.28
2018-12-19T13:04:01.461Z,78.31
2018-12-19T13:07:04.825Z,76.74
2018-12-19T13:10:09.162Z,77.15
2018-12-19T13:13:12.554Z,77.19
2018-12-19T13:16:15.951Z,77.24
2018-12-19T13:19:19.251Z,77.89
2018-12-19T13:22:22.573Z,78.71
2018-12-19T13:25:25.959Z,78.92
2018-12-19T13:28:29.346Z,79.73
2018-12-19T13:31:32.642Z,79.96
2018-12-19T13:34:35.955Z,80.44
2018-12-19T13:37:39.259Z,81.02
2018-12-19T13:40:42.653Z,82.12
2018-12-19T13:43:46.003Z,82.77
2018-12-19T13:46:49.302Z,82.54
2018-12-19T13:49:52.714Z,82.60
2018-12-19T13:52:56.058Z,83.34
2018-12-19T13:55:59.381Z,83.33
2018-12-19T13:59:02.948Z,82.79
2018-12-19T14:02:06.345Z,82.23
2018-12-19T14:05:09.725Z,81.83
2018-12-19T14:08:13.021Z,82.48
2018-12-19T14:11:16.317Z,81.70
2018-12-19T14:14:19.612Z,82.39
2018-12-19T14:17:22.913Z,82.66
2018-12-19T14:20:26.211Z,83.26
2018-12-19T14:23:30.551Z,83.34
2018-12-19T14:26:33.928Z,84.10
2018-12-19T14:29:37.228Z,84.07
2018-12-19T14:32:40.658Z,84.46
2018-12-19T14:35:44.064Z,85.41
2018-12-19T14:38:47.381Z,85.76
2018-12-19T14:41:50.749Z,85.64
2018-12-19T14:44:54.190Z,85.67
2018-12-19T14:47:57.514Z,85.73
2018-12-19T14:51:00.878Z,85.11
2018-12-19T14:54:04.245Z,85.22
2018-12-19T14:57:07.554Z,85.33
2018-12-19T15:00:11.452Z,85.18
2018-12-19T15:03:14.855Z,85.34
2018-12-19T15:06:18.189Z,86.11
2018-12-19T15:09:21.540Z,87.01
2018-12-19T15:12:25.899Z,87.58
2018-12-19T15:15:29.520Z,88.46
2018-12-19T15:18:32.877Z,89.27
2018-12-19T15:21:36.212Z,90.36
2018-12-19T15:24:39.573Z,90.49
2018-12-19T15:27:42.864Z,89.73
2018-12-19T15:30:46.165Z,90.95
2018-12-19T15:33:49.508Z,92.42
2018-12-19T15:36:52.824Z,94.43
2018-12-19T15:39:56.204Z,95.59
2018-12-19T15:42:59.606Z,96.21
2018-12-19T15:46:02.916Z,96.34
2018-12-19T15:49:06.226Z,96.08
2018-12-19T15:52:09.540Z,96.29
2018-12-19T15:55:12.966Z,96.94
2018-12-19T15:58:16.355Z,96.75
2018-12-19T16:01:19.693Z,95.52
2018-12-19T16:04:22.989Z,93.97
2018-12-19T16:07:26.288Z,92.59
2018-12-19T16:10:29.582Z,92.06
2018-12-19T16:13:33.253Z,92.74
2018-12-19T16:16:36.632Z,92.43
2018-12-19T16:19:39.919Z,92.20
2018-12-19T16:22:43.252Z,91.58
2018-12-19T16:25:46.538Z,90.98
2018-12-19T16:28:49.844Z,90.40
2018-12-19T16:31:53.146Z,89.42
2018-12-19T16:34:56.471Z,89.75
2018-12-19T16:37:59.806Z,89.85
2018-12-19T16:41:03.140Z,89.21
2018-12-19T16:44:06.437Z,89.55
2018-12-19T16:47:09.833Z,89.70
2018-12-19T16:50:13.205Z,89.26
2018-12-19T16:53:16.500Z,88.58
2018-12-19T16:56:19.929Z,89.79
2018-12-19T16:59:23.333Z,89.66
2018-12-19T17:02:26.689Z,91.30
2018-12-19T17:05:30.038Z,91.12
2018-12-19T17:08:34.301Z,91.08
2018-12-19T17:11:37.644Z,91.26
2018-12-19T17:14:41.038Z,91.44
2018-12-19T17:17:44.333Z,91.74
2018-12-19T17:20:47.758Z,92.97
2018-12-19T17:23:51.145Z,93.01
2018-12-19T17:26:54.457Z,93.11
2018-12-19T17:29:57.849Z,94.07
2018-12-19T17:33:01.181Z,94.07
2018-12-19T17:36:05.349Z,94.23
2018-12-19T17:39:08.772Z,93.46
2018-12-19T17:42:12.152Z,93.15
2018-12-19T17:45:15.561Z,93.18
2018-12-19T17:48:18.889Z,92.55
2018-12-19T17:51:22.194Z,92.30
2018-12-19T17:54:25.530Z,91.77
2018-12-19T17:57:28.865Z,91.67
2018-12-19T18:00:32.247Z,91.82
2018-12-19T18:03:35.573Z,91.73
2018-12-19T18:06:38.872Z,91.72
2018-12-19T18:09:42.202Z,92.61
2018-12-19T18:12:45.650Z,92.50
2018-12-19T18:15:48.961Z,93.01
2018-12-19T18:18:52.332Z,94.06
2018-12-19T18:21:55.753Z,94.51
2018-12-19T18:24:59.072Z,93.71
2018-12-19T18:28:02.349Z,94.05
2018-12-19T18:31:05.749Z,94.30
2018-12-19T18:34:09.091Z,94.28
2018-12-19T18:37:12.414Z,94.03
2018-12-19T18:40:15.756Z,93.42
2018-12-19T18:43:19.077Z,93.59
2018-12-19T18:46:22.369Z,93.58
2018-12-19T18:49:25.750Z,93.68
2018-12-19T18:52:29.061Z,93.71
2018-12-19T18:55:32.426Z,94.59
2018-12-19T18:58:37.213Z,95.77
2018-12-19T19:01:40.669Z,95.64
2018-12-19T19:04:44.153Z,95.53
2018-12-19T19:07:47.574Z,95.37
2018-12-19T19:10:50.877Z,95.84
2018-12-19T19:13:54.174Z,96.03
2018-12-19T19:16:57.973Z,96.14
2018-12-19T19:20:01.274Z,96.66
2018-12-19T19:23:04.671Z,96.95
2018-12-19T19:26:08.102Z,97.51
2018-12-19T19:29:11.507Z,98.08
2018-12-19T19:32:14.822Z,97.80
2018-12-19T19:35:18.162Z,98.58
2018-12-19T19:38:21.470Z,97.75
2018-12-19T19:41:24.869Z,97.46
2018-12-19T19:44:28.150Z,96.38
2018-12-19T19:47:31.460Z,96.55
2018-12-19T19:50:34.866Z,96.05
2018-12-19T19:53:38.180Z,96.00
2018-12-19T19:56:41.465Z,95.86
2018-12-19T19:59:44.753Z,96.04
2018-12-19T20:02:48.059Z,95.97
2018-12-19T20:05:51.458Z,95.11
2018-12-19T20:08:57.127Z,95.08
2018-12-19T20:12:00.437Z,95.18
2018-12-19T20:15:04.518Z,95.49
2018-12-19T20:18:08.368Z,95.24
2018-12-19T20:21:11.661Z,93.26
2018-12-19T20:24:14.946Z,94.39
2018-12-19T20:27:18.374Z,95.97
2018-12-19T20:30:21.662Z,96.73
2018-12-19T20:33:26.189Z,98.05
2018-12-19T20:36:29.756Z,99.56
2018-12-19T20:39:33.050Z,100.00
2018-12-19T20:42:36.373Z,100.00
2018-12-19T20:45:39.749Z,100.00
2018-12-19T20:48:43.153Z,100.00
2018-12-19T20:51:47.053Z,100.00
2018-12-19T20:54:50.325Z,100.00
2018-12-19T20:57:53.653Z,100.00
2018-12-19T21:00:57.041Z,100.00
2018-12-19T21:04:00.458Z,100.00
2018-12-19T21:07:03.856Z,99.96
2018-12-19T21:10:08.157Z,100.00
2018-12-19T21:13:11.457Z,100.00
2018-12-19T21:16:14.804Z,100.00
2018-12-19T21:19:18.172Z,100.00
2018-12-19T21:22:21.481Z,100.00
2018-12-19T21:25:24.987Z,100.00
2018-12-19T21:28:28.375Z,100.00
2018-12-19T21:31:31.737Z,100.00
2018-12-19T21:34:35.104Z,100.00
2018-12-19T21:37:38.478Z,100.00
2018-12-19T21:40:41.928Z,100.00
2018-12-19T21:43:45.279Z,100.00
2018-12-19T21:46:48.793Z,100.00
2018-12-19T21:49:52.236Z,100.00
2018-12-19T21:52:55.721Z,100.00
2018-12-19T21:55:59.070Z,100.00
2018-12-19T21:59:02.471Z,100.00
2018-12-19T22:02:06.091Z,100.00
2018-12-19T22:05:09.427Z,100.00
2018-12-19T22:08:12.876Z,100.00
2018-12-19T22:11:16.347Z,100.00
2018-12-19T22:14:19.746Z,100.00
2018-12-19T22:17:28.656Z,100.00
2018-12-19T22:20:32.101Z,100.00
2018-12-19T22:23:35.586Z,100.00
2018-12-19T22:26:39.021Z,100.00
2018-12-19T22:29:42.600Z,100.00
2018-12-19T22:32:45.959Z,100.00
2018-12-19T22:35:49.322Z,100.00
2018-12-19T22:38:52.625Z,100.00
2018-12-19T22:41:55.921Z,100.00
2018-12-19T22:44:59.226Z,100.00
2018-12-19T22:48:02.638Z,100.00
2018-12-19T22:51:06.192Z,100.00
2018-12-19T22:54:09.619Z,100.00
2018-12-19T22:57:13.028Z,100.00
2018-12-19T23:00:17.152Z,100.00
2018-12-19T23:06:45.492Z,100.00
2018-12-19T23:09:48.951Z,100.00
2018-12-19T23:12:52.530Z,100.00
2018-12-19T23:15:55.968Z,100.00
2018-12-19T23:18:59.696Z,100.00
2018-12-19T23:22:03.205Z,100.00
2018-12-19T23:25:07.328Z,100.00
2018-12-19T23:28:10.864Z,100.00
2018-12-19T23:31:14.462Z,100.00
2018-12-19T23:34:17.821Z,100.00
2018-12-19T23:37:21.127Z,100.00
2018-12-19T23:40:24.658Z,100.00
2018-12-19T23:43:28.057Z,100.00
2018-12-19T23:46:33.357Z,100.00
2018-12-19T23:49:36.816Z,100.00
2018-12-19T23:52:40.394Z,100.00
2018-12-19T23:55:43.950Z,100.00
2018-12-19T23:58:47.321Z,100.00
